Anderson, California
Current Conditions -  °F | °C
As of 4:53 AM on Saturday 01 Nov 2014 (Local Time) from KRDD Reporting Station
Overcast Overcast  
Wind Chill: 10°   Ceiling: 7500
Heat Index: 10°   Visibility: 9mi
Dew Point: 10°   Wind: 3mph
Humidity: 100%   Direction: 80°E
Pressure: 29.7"   Gusts: NA
Location:  40.45°N, 122.3°W
Report Text: KRDD 011153Z AUTO 08003KT 9SM FEW002 OVC075 10/10 A2970 RMK AO2 SLP055 70034 T01000100 10111 20100 50005
Loading
Personal Weather Stations






























Interactive Weather Map
Tropical Storm Tracking
New forecast layout! Learn more

10-Day Weather Forecast

Advertisements
Track Severe Weather on mobile